sensor_id;sensor_type;location;lat;lon;timestamp;temperature;humidity
51383;DHT22;37475;43.358;1.248;2022-08-19T00:01:46;18.10;87.90
51383;DHT22;37475;43.358;1.248;2022-08-19T00:04:15;18.00;87.90
51383;DHT22;37475;43.358;1.248;2022-08-19T00:06:43;18.00;87.90
51383;DHT22;37475;43.358;1.248;2022-08-19T00:09:12;18.00;88.00
51383;DHT22;37475;43.358;1.248;2022-08-19T00:11:40;18.00;88.00
51383;DHT22;37475;43.358;1.248;2022-08-19T00:14:08;18.00;87.90
51383;DHT22;37475;43.358;1.248;2022-08-19T00:16:36;18.00;88.00
51383;DHT22;37475;43.358;1.248;2022-08-19T00:19:04;18.10;88.10
51383;DHT22;37475;43.358;1.248;2022-08-19T00:21:30;18.00;88.10
51383;DHT22;37475;43.358;1.248;2022-08-19T00:23:57;18.00;88.10
51383;DHT22;37475;43.358;1.248;2022-08-19T00:26:25;18.00;88.30
51383;DHT22;37475;43.358;1.248;2022-08-19T00:28:52;17.90;88.40
51383;DHT22;37475;43.358;1.248;2022-08-19T00:31:18;17.80;88.60
51383;DHT22;37475;43.358;1.248;2022-08-19T00:33:44;17.80;88.70
51383;DHT22;37475;43.358;1.248;2022-08-19T00:36:10;17.80;88.80
51383;DHT22;37475;43.358;1.248;2022-08-19T00:38:38;17.80;88.90
51383;DHT22;37475;43.358;1.248;2022-08-19T00:41:10;17.80;89.00
51383;DHT22;37475;43.358;1.248;2022-08-19T00:43:38;17.80;89.00
51383;DHT22;37475;43.358;1.248;2022-08-19T00:46:05;17.70;89.10
51383;DHT22;37475;43.358;1.248;2022-08-19T00:48:32;17.70;89.20
51383;DHT22;37475;43.358;1.248;2022-08-19T00:50:58;17.70;89.40
51383;DHT22;37475;43.358;1.248;2022-08-19T00:53:28;17.70;89.50
51383;DHT22;37475;43.358;1.248;2022-08-19T00:55:57;17.70;89.50
51383;DHT22;37475;43.358;1.248;2022-08-19T00:58:27;17.80;89.40
51383;DHT22;37475;43.358;1.248;2022-08-19T01:00:55;17.80;89.30
51383;DHT22;37475;43.358;1.248;2022-08-19T01:03:22;17.80;89.20
51383;DHT22;37475;43.358;1.248;2022-08-19T01:05:49;17.90;89.10
51383;DHT22;37475;43.358;1.248;2022-08-19T01:08:18;17.90;89.00
51383;DHT22;37475;43.358;1.248;2022-08-19T01:10:54;17.90;89.10
51383;DHT22;37475;43.358;1.248;2022-08-19T01:13:24;17.90;89.10
51383;DHT22;37475;43.358;1.248;2022-08-19T01:15:57;17.90;89.10
51383;DHT22;37475;43.358;1.248;2022-08-19T01:18:29;17.90;89.00
51383;DHT22;37475;43.358;1.248;2022-08-19T01:20:58;17.90;89.10
51383;DHT22;37475;43.358;1.248;2022-08-19T01:23:28;17.90;89.10
51383;DHT22;37475;43.358;1.248;2022-08-19T01:26:15;17.80;88.90
51383;DHT22;37475;43.358;1.248;2022-08-19T01:28:48;17.80;88.90
51383;DHT22;37475;43.358;1.248;2022-08-19T01:31:19;17.80;89.00
51383;DHT22;37475;43.358;1.248;2022-08-19T01:33:47;17.80;89.00
51383;DHT22;37475;43.358;1.248;2022-08-19T01:36:22;17.80;89.00
51383;DHT22;37475;43.358;1.248;2022-08-19T01:38:52;17.80;89.00
51383;DHT22;37475;43.358;1.248;2022-08-19T01:41:18;17.80;89.10
51383;DHT22;37475;43.358;1.248;2022-08-19T01:43:44;17.80;89.00
51383;DHT22;37475;43.358;1.248;2022-08-19T01:46:11;17.80;89.20
51383;DHT22;37475;43.358;1.248;2022-08-19T01:48:40;17.80;89.20
51383;DHT22;37475;43.358;1.248;2022-08-19T01:51:08;17.80;89.40
51383;DHT22;37475;43.358;1.248;2022-08-19T01:53:34;17.80;89.30
51383;DHT22;37475;43.358;1.248;2022-08-19T01:56:02;17.80;89.30
51383;DHT22;37475;43.358;1.248;2022-08-19T01:58:38;17.80;89.30
51383;DHT22;37475;43.358;1.248;2022-08-19T02:01:07;17.80;89.40
51383;DHT22;37475;43.358;1.248;2022-08-19T02:03:34;17.70;89.50
51383;DHT22;37475;43.358;1.248;2022-08-19T02:06:01;17.70;89.50
51383;DHT22;37475;43.358;1.248;2022-08-19T02:08:29;17.70;89.50
51383;DHT22;37475;43.358;1.248;2022-08-19T02:10:56;17.80;89.60
51383;DHT22;37475;43.358;1.248;2022-08-19T02:13:25;17.70;89.60
51383;DHT22;37475;43.358;1.248;2022-08-19T02:15:52;17.60;89.80
51383;DHT22;37475;43.358;1.248;2022-08-19T02:18:17;17.60;89.80
51383;DHT22;37475;43.358;1.248;2022-08-19T02:20:44;17.60;89.90
51383;DHT22;37475;43.358;1.248;2022-08-19T02:23:12;17.60;89.90
51383;DHT22;37475;43.358;1.248;2022-08-19T02:25:39;17.50;90.10
51383;DHT22;37475;43.358;1.248;2022-08-19T02:28:06;17.50;90.20
51383;DHT22;37475;43.358;1.248;2022-08-19T02:30:32;17.40;90.30
51383;DHT22;37475;43.358;1.248;2022-08-19T02:32:58;17.40;90.30
51383;DHT22;37475;43.358;1.248;2022-08-19T02:35:25;17.40;90.30
51383;DHT22;37475;43.358;1.248;2022-08-19T02:37:51;17.40;90.40
51383;DHT22;37475;43.358;1.248;2022-08-19T02:40:36;17.40;90.40
51383;DHT22;37475;43.358;1.248;2022-08-19T02:43:07;17.40;90.50
51383;DHT22;37475;43.358;1.248;2022-08-19T02:45:38;17.50;90.50
51383;DHT22;37475;43.358;1.248;2022-08-19T02:48:05;17.50;90.40
51383;DHT22;37475;43.358;1.248;2022-08-19T02:50:32;17.50;90.40
51383;DHT22;37475;43.358;1.248;2022-08-19T02:52:58;17.50;90.30
51383;DHT22;37475;43.358;1.248;2022-08-19T02:55:23;17.60;90.30
51383;DHT22;37475;43.358;1.248;2022-08-19T02:57:49;17.60;90.30
51383;DHT22;37475;43.358;1.248;2022-08-19T03:00:15;17.60;90.20
51383;DHT22;37475;43.358;1.248;2022-08-19T03:02:42;17.60;90.20
51383;DHT22;37475;43.358;1.248;2022-08-19T03:05:09;17.60;90.10
51383;DHT22;37475;43.358;1.248;2022-08-19T03:07:36;17.60;90.00
51383;DHT22;37475;43.358;1.248;2022-08-19T03:10:03;17.60;90.00
51383;DHT22;37475;43.358;1.248;2022-08-19T03:12:30;17.60;90.00
51383;DHT22;37475;43.358;1.248;2022-08-19T03:14:56;17.70;90.00
51383;DHT22;37475;43.358;1.248;2022-08-19T03:17:22;17.60;90.00
51383;DHT22;37475;43.358;1.248;2022-08-19T03:19:48;17.70;89.90
51383;DHT22;37475;43.358;1.248;2022-08-19T03:22:14;17.70;89.90
51383;DHT22;37475;43.358;1.248;2022-08-19T03:24:40;17.60;89.90
51383;DHT22;37475;43.358;1.248;2022-08-19T03:27:05;17.70;89.90
51383;DHT22;37475;43.358;1.248;2022-08-19T03:29:32;17.70;89.80
51383;DHT22;37475;43.358;1.248;2022-08-19T03:32:04;17.70;90.00
51383;DHT22;37475;43.358;1.248;2022-08-19T03:34:31;17.70;90.00
51383;DHT22;37475;43.358;1.248;2022-08-19T03:37:07;17.70;89.70
51383;DHT22;37475;43.358;1.248;2022-08-19T03:39:36;17.70;89.70
51383;DHT22;37475;43.358;1.248;2022-08-19T03:42:03;17.70;89.70
51383;DHT22;37475;43.358;1.248;2022-08-19T03:44:29;17.70;89.60
51383;DHT22;37475;43.358;1.248;2022-08-19T03:46:57;17.80;89.50
51383;DHT22;37475;43.358;1.248;2022-08-19T03:49:27;17.80;89.50
51383;DHT22;37475;43.358;1.248;2022-08-19T03:51:56;17.80;89.40
51383;DHT22;37475;43.358;1.248;2022-08-19T03:54:25;17.80;89.40
51383;DHT22;37475;43.358;1.248;2022-08-19T03:56:52;17.80;89.20
51383;DHT22;37475;43.358;1.248;2022-08-19T03:59:32;17.80;89.30
51383;DHT22;37475;43.358;1.248;2022-08-19T04:02:02;17.80;89.20
51383;DHT22;37475;43.358;1.248;2022-08-19T04:04:32;17.80;89.30
51383;DHT22;37475;43.358;1.248;2022-08-19T04:06:58;17.80;89.20
51383;DHT22;37475;43.358;1.248;2022-08-19T04:09:24;17.80;89.10
51383;DHT22;37475;43.358;1.248;2022-08-19T04:11:52;17.80;89.20
51383;DHT22;37475;43.358;1.248;2022-08-19T04:14:21;17.80;89.00
51383;DHT22;37475;43.358;1.248;2022-08-19T04:16:49;17.80;89.00
51383;DHT22;37475;43.358;1.248;2022-08-19T04:19:17;17.80;89.00
51383;DHT22;37475;43.358;1.248;2022-08-19T04:21:46;17.80;89.00
51383;DHT22;37475;43.358;1.248;2022-08-19T04:24:14;17.80;88.90
51383;DHT22;37475;43.358;1.248;2022-08-19T04:26:40;17.80;89.10
51383;DHT22;37475;43.358;1.248;2022-08-19T04:29:09;17.80;89.10
51383;DHT22;37475;43.358;1.248;2022-08-19T04:31:36;17.70;89.20
51383;DHT22;37475;43.358;1.248;2022-08-19T04:34:07;17.80;89.40
51383;DHT22;37475;43.358;1.248;2022-08-19T04:36:37;17.80;89.30
51383;DHT22;37475;43.358;1.248;2022-08-19T04:39:12;17.80;89.30
51383;DHT22;37475;43.358;1.248;2022-08-19T04:41:43;17.80;89.30
51383;DHT22;37475;43.358;1.248;2022-08-19T04:44:29;17.80;89.20
51383;DHT22;37475;43.358;1.248;2022-08-19T04:46:56;17.70;89.30
51383;DHT22;37475;43.358;1.248;2022-08-19T04:49:23;17.70;89.40
51383;DHT22;37475;43.358;1.248;2022-08-19T04:51:52;17.70;89.40
51383;DHT22;37475;43.358;1.248;2022-08-19T04:54:20;17.70;89.50
51383;DHT22;37475;43.358;1.248;2022-08-19T04:56:49;17.70;89.50
51383;DHT22;37475;43.358;1.248;2022-08-19T04:59:16;17.60;89.50
51383;DHT22;37475;43.358;1.248;2022-08-19T05:01:44;17.60;89.60
51383;DHT22;37475;43.358;1.248;2022-08-19T05:04:19;17.60;89.60
51383;DHT22;37475;43.358;1.248;2022-08-19T05:06:49;17.60;89.60
51383;DHT22;37475;43.358;1.248;2022-08-19T05:09:17;17.70;89.50
51383;DHT22;37475;43.358;1.248;2022-08-19T05:11:44;17.60;89.50
51383;DHT22;37475;43.358;1.248;2022-08-19T05:14:10;17.60;89.80
51383;DHT22;37475;43.358;1.248;2022-08-19T05:16:40;17.60;89.50
51383;DHT22;37475;43.358;1.248;2022-08-19T05:19:06;17.60;89.50
51383;DHT22;37475;43.358;1.248;2022-08-19T05:21:51;17.60;89.60
51383;DHT22;37475;43.358;1.248;2022-08-19T05:24:36;17.60;89.70
51383;DHT22;37475;43.358;1.248;2022-08-19T05:27:02;17.50;89.90
51383;DHT22;37475;43.358;1.248;2022-08-19T05:29:31;17.50;89.80
51383;DHT22;37475;43.358;1.248;2022-08-19T05:32:00;17.40;90.00
51383;DHT22;37475;43.358;1.248;2022-08-19T05:34:27;17.40;90.10
51383;DHT22;37475;43.358;1.248;2022-08-19T05:36:56;17.40;90.10
51383;DHT22;37475;43.358;1.248;2022-08-19T05:39:27;17.50;90.20
51383;DHT22;37475;43.358;1.248;2022-08-19T05:42:00;17.50;90.10
51383;DHT22;37475;43.358;1.248;2022-08-19T05:44:33;17.50;89.80
51383;DHT22;37475;43.358;1.248;2022-08-19T05:47:04;17.60;89.80
51383;DHT22;37475;43.358;1.248;2022-08-19T05:49:32;17.60;90.00
51383;DHT22;37475;43.358;1.248;2022-08-19T05:52:02;17.50;89.90
51383;DHT22;37475;43.358;1.248;2022-08-19T05:54:30;17.60;89.90
51383;DHT22;37475;43.358;1.248;2022-08-19T05:56:56;17.60;89.70
51383;DHT22;37475;43.358;1.248;2022-08-19T05:59:22;17.60;89.60
51383;DHT22;37475;43.358;1.248;2022-08-19T06:01:50;17.60;89.50
51383;DHT22;37475;43.358;1.248;2022-08-19T06:04:18;17.60;89.50
51383;DHT22;37475;43.358;1.248;2022-08-19T06:06:49;17.60;89.40
51383;DHT22;37475;43.358;1.248;2022-08-19T06:09:18;17.70;89.30
51383;DHT22;37475;43.358;1.248;2022-08-19T06:11:46;17.70;89.30
51383;DHT22;37475;43.358;1.248;2022-08-19T06:14:20;17.80;89.30
51383;DHT22;37475;43.358;1.248;2022-08-19T06:16:49;17.80;89.20
51383;DHT22;37475;43.358;1.248;2022-08-19T06:19:20;17.80;89.10
51383;DHT22;37475;43.358;1.248;2022-08-19T06:21:49;17.70;89.10
51383;DHT22;37475;43.358;1.248;2022-08-19T06:24:19;17.80;89.10
51383;DHT22;37475;43.358;1.248;2022-08-19T06:26:49;17.90;88.80
51383;DHT22;37475;43.358;1.248;2022-08-19T06:29:17;18.00;88.70
51383;DHT22;37475;43.358;1.248;2022-08-19T06:31:52;18.10;88.50
51383;DHT22;37475;43.358;1.248;2022-08-19T06:34:20;18.10;88.40
51383;DHT22;37475;43.358;1.248;2022-08-19T06:36:51;18.10;88.30
51383;DHT22;37475;43.358;1.248;2022-08-19T06:39:22;18.10;87.80
51383;DHT22;37475;43.358;1.248;2022-08-19T06:41:56;18.20;88.00
51383;DHT22;37475;43.358;1.248;2022-08-19T06:44:27;18.40;87.60
51383;DHT22;37475;43.358;1.248;2022-08-19T06:46:55;18.30;87.00
51383;DHT22;37475;43.358;1.248;2022-08-19T06:49:22;18.30;87.50
51383;DHT22;37475;43.358;1.248;2022-08-19T06:51:49;18.20;87.50
51383;DHT22;37475;43.358;1.248;2022-08-19T06:54:16;18.40;87.50
51383;DHT22;37475;43.358;1.248;2022-08-19T06:56:43;18.50;87.10
51383;DHT22;37475;43.358;1.248;2022-08-19T06:59:13;18.60;86.30
51383;DHT22;37475;43.358;1.248;2022-08-19T07:01:50;18.70;86.40
51383;DHT22;37475;43.358;1.248;2022-08-19T07:04:27;19.00;86.30
51383;DHT22;37475;43.358;1.248;2022-08-19T07:06:58;19.00;85.30
51383;DHT22;37475;43.358;1.248;2022-08-19T07:09:36;18.80;85.10
51383;DHT22;37475;43.358;1.248;2022-08-19T07:12:05;19.10;84.30
51383;DHT22;37475;43.358;1.248;2022-08-19T07:14:33;19.20;84.60
51383;DHT22;37475;43.358;1.248;2022-08-19T07:17:04;19.20;84.80
51383;DHT22;37475;43.358;1.248;2022-08-19T07:19:32;19.00;84.20
51383;DHT22;37475;43.358;1.248;2022-08-19T07:21:58;18.60;85.30
51383;DHT22;37475;43.358;1.248;2022-08-19T07:24:27;18.60;86.00
51383;DHT22;37475;43.358;1.248;2022-08-19T07:26:56;18.80;85.90
51383;DHT22;37475;43.358;1.248;2022-08-19T07:29:27;18.90;85.80
51383;DHT22;37475;43.358;1.248;2022-08-19T07:31:55;19.10;84.80
51383;DHT22;37475;43.358;1.248;2022-08-19T07:34:22;19.10;84.80
51383;DHT22;37475;43.358;1.248;2022-08-19T07:36:49;19.00;84.40
51383;DHT22;37475;43.358;1.248;2022-08-19T07:39:36;19.10;83.60
51383;DHT22;37475;43.358;1.248;2022-08-19T07:42:07;19.10;83.60
51383;DHT22;37475;43.358;1.248;2022-08-19T07:44:36;19.20;83.50
51383;DHT22;37475;43.358;1.248;2022-08-19T07:47:03;19.10;83.60
51383;DHT22;37475;43.358;1.248;2022-08-19T07:49:29;19.10;84.20
51383;DHT22;37475;43.358;1.248;2022-08-19T07:52:03;19.00;83.70
51383;DHT22;37475;43.358;1.248;2022-08-19T07:54:34;19.10;83.60
51383;DHT22;37475;43.358;1.248;2022-08-19T07:57:03;19.30;83.50
51383;DHT22;37475;43.358;1.248;2022-08-19T07:59:30;19.20;82.90
51383;DHT22;37475;43.358;1.248;2022-08-19T08:01:57;19.30;83.00
51383;DHT22;37475;43.358;1.248;2022-08-19T08:04:26;19.40;82.90
51383;DHT22;37475;43.358;1.248;2022-08-19T08:07:12;19.50;81.30
51383;DHT22;37475;43.358;1.248;2022-08-19T08:09:56;19.40;81.80
51383;DHT22;37475;43.358;1.248;2022-08-19T08:12:29;19.50;81.80
51383;DHT22;37475;43.358;1.248;2022-08-19T08:15:00;19.40;81.60
51383;DHT22;37475;43.358;1.248;2022-08-19T08:17:29;19.30;82.00
51383;DHT22;37475;43.358;1.248;2022-08-19T08:19:56;19.20;82.20
51383;DHT22;37475;43.358;1.248;2022-08-19T08:22:23;19.50;81.30
51383;DHT22;37475;43.358;1.248;2022-08-19T08:25:14;19.80;81.40
51383;DHT22;37475;43.358;1.248;2022-08-19T08:27:43;19.80;79.90
51383;DHT22;37475;43.358;1.248;2022-08-19T08:30:17;19.80;77.90
51383;DHT22;37475;43.358;1.248;2022-08-19T08:32:48;20.00;77.50
51383;DHT22;37475;43.358;1.248;2022-08-19T08:35:17;20.30;77.20
51383;DHT22;37475;43.358;1.248;2022-08-19T08:37:47;20.50;75.90
51383;DHT22;37475;43.358;1.248;2022-08-19T08:43:36;20.50;75.70
51383;DHT22;37475;43.358;1.248;2022-08-19T08:47:05;20.40;76.00
51383;DHT22;37475;43.358;1.248;2022-08-19T08:52:28;20.80;75.40
51383;DHT22;37475;43.358;1.248;2022-08-19T08:54:59;20.80;72.90
51383;DHT22;37475;43.358;1.248;2022-08-19T08:57:32;20.90;72.60
51383;DHT22;37475;43.358;1.248;2022-08-19T09:00:03;21.30;70.20
51383;DHT22;37475;43.358;1.248;2022-08-19T09:02:32;21.10;71.20
51383;DHT22;37475;43.358;1.248;2022-08-19T09:04:57;21.20;70.00
51383;DHT22;37475;43.358;1.248;2022-08-19T09:15:46;22.10;67.30
51383;DHT22;37475;43.358;1.248;2022-08-19T09:18:15;22.10;68.00
51383;DHT22;37475;43.358;1.248;2022-08-19T09:20:45;21.60;68.00
51383;DHT22;37475;43.358;1.248;2022-08-19T09:23:13;21.60;68.70
51383;DHT22;37475;43.358;1.248;2022-08-19T09:25:39;21.40;69.10
51383;DHT22;37475;43.358;1.248;2022-08-19T09:28:06;21.50;70.10
51383;DHT22;37475;43.358;1.248;2022-08-19T09:30:36;21.70;67.90
51383;DHT22;37475;43.358;1.248;2022-08-19T09:33:05;22.00;66.50
51383;DHT22;37475;43.358;1.248;2022-08-19T09:35:32;22.10;64.20
51383;DHT22;37475;43.358;1.248;2022-08-19T09:37:59;22.50;64.50
51383;DHT22;37475;43.358;1.248;2022-08-19T09:40:27;22.30;63.80
51383;DHT22;37475;43.358;1.248;2022-08-19T09:42:54;22.30;64.10
51383;DHT22;37475;43.358;1.248;2022-08-19T09:45:21;22.60;64.40
51383;DHT22;37475;43.358;1.248;2022-08-19T09:47:49;22.20;66.50
51383;DHT22;37475;43.358;1.248;2022-08-19T09:50:16;21.90;68.30
51383;DHT22;37475;43.358;1.248;2022-08-19T09:52:43;21.60;69.50
51383;DHT22;37475;43.358;1.248;2022-08-19T09:55:11;21.30;69.40
51383;DHT22;37475;43.358;1.248;2022-08-19T09:57:37;21.30;69.20
51383;DHT22;37475;43.358;1.248;2022-08-19T10:00:05;22.10;68.20
51383;DHT22;37475;43.358;1.248;2022-08-19T10:02:33;22.40;64.50
51383;DHT22;37475;43.358;1.248;2022-08-19T10:04:59;22.20;64.40
51383;DHT22;37475;43.358;1.248;2022-08-19T10:07:43;22.00;65.50
51383;DHT22;37475;43.358;1.248;2022-08-19T10:10:09;22.00;65.30
51383;DHT22;37475;43.358;1.248;2022-08-19T10:12:35;22.10;65.90
51383;DHT22;37475;43.358;1.248;2022-08-19T10:15:02;22.40;64.90
51383;DHT22;37475;43.358;1.248;2022-08-19T10:17:29;22.00;65.90
51383;DHT22;37475;43.358;1.248;2022-08-19T10:19:55;21.70;66.40
51383;DHT22;37475;43.358;1.248;2022-08-19T10:22:21;21.70;65.90
51383;DHT22;37475;43.358;1.248;2022-08-19T10:24:47;21.60;64.30
51383;DHT22;37475;43.358;1.248;2022-08-19T10:27:14;21.70;64.90
51383;DHT22;37475;43.358;1.248;2022-08-19T10:29:40;21.80;64.00
51383;DHT22;37475;43.358;1.248;2022-08-19T10:32:08;22.20;63.60
51383;DHT22;37475;43.358;1.248;2022-08-19T10:34:36;22.60;62.10
51383;DHT22;37475;43.358;1.248;2022-08-19T10:37:04;23.00;62.50
51383;DHT22;37475;43.358;1.248;2022-08-19T10:39:33;23.40;58.50
51383;DHT22;37475;43.358;1.248;2022-08-19T10:42:07;23.70;57.30
51383;DHT22;37475;43.358;1.248;2022-08-19T10:44:35;23.50;58.50
51383;DHT22;37475;43.358;1.248;2022-08-19T10:47:03;23.20;60.10
51383;DHT22;37475;43.358;1.248;2022-08-19T10:49:29;23.50;59.00
51383;DHT22;37475;43.358;1.248;2022-08-19T10:51:56;24.00;57.80
51383;DHT22;37475;43.358;1.248;2022-08-19T10:54:41;23.90;57.50
51383;DHT22;37475;43.358;1.248;2022-08-19T10:57:25;24.10;57.00
51383;DHT22;37475;43.358;1.248;2022-08-19T10:59:55;24.90;57.40
51383;DHT22;37475;43.358;1.248;2022-08-19T11:02:22;24.30;57.40
51383;DHT22;37475;43.358;1.248;2022-08-19T11:04:48;24.30;56.00
51383;DHT22;37475;43.358;1.248;2022-08-19T11:07:15;24.00;56.90
51383;DHT22;37475;43.358;1.248;2022-08-19T11:09:43;24.30;55.80
51383;DHT22;37475;43.358;1.248;2022-08-19T11:12:09;24.40;55.60
51383;DHT22;37475;43.358;1.248;2022-08-19T11:14:36;24.60;55.70
51383;DHT22;37475;43.358;1.248;2022-08-19T11:17:04;24.90;54.90
51383;DHT22;37475;43.358;1.248;2022-08-19T11:19:30;25.10;55.30
51383;DHT22;37475;43.358;1.248;2022-08-19T11:21:56;24.40;55.50
51383;DHT22;37475;43.358;1.248;2022-08-19T11:24:24;24.50;55.40
51383;DHT22;37475;43.358;1.248;2022-08-19T11:26:54;24.10;55.90
51383;DHT22;37475;43.358;1.248;2022-08-19T11:29:27;24.60;55.20
51383;DHT22;37475;43.358;1.248;2022-08-19T11:31:54;24.80;54.00
51383;DHT22;37475;43.358;1.248;2022-08-19T11:34:23;24.70;53.50
51383;DHT22;37475;43.358;1.248;2022-08-19T11:36:53;24.90;51.90
51383;DHT22;37475;43.358;1.248;2022-08-19T11:39:24;25.00;52.20
51383;DHT22;37475;43.358;1.248;2022-08-19T11:41:50;25.40;51.90
51383;DHT22;37475;43.358;1.248;2022-08-19T11:44:17;25.80;51.00
51383;DHT22;37475;43.358;1.248;2022-08-19T11:46:43;26.30;49.20
51383;DHT22;37475;43.358;1.248;2022-08-19T11:49:13;25.80;50.30
51383;DHT22;37475;43.358;1.248;2022-08-19T11:51:40;25.70;50.20
51383;DHT22;37475;43.358;1.248;2022-08-19T11:54:09;25.30;51.60
51383;DHT22;37475;43.358;1.248;2022-08-19T11:56:37;25.10;52.10
51383;DHT22;37475;43.358;1.248;2022-08-19T11:59:03;25.50;51.80
51383;DHT22;37475;43.358;1.248;2022-08-19T12:01:29;25.30;52.70
51383;DHT22;37475;43.358;1.248;2022-08-19T12:03:56;25.90;50.20
51383;DHT22;37475;43.358;1.248;2022-08-19T12:06:29;25.60;48.60
51383;DHT22;37475;43.358;1.248;2022-08-19T12:08:58;25.80;48.10
51383;DHT22;37475;43.358;1.248;2022-08-19T12:11:26;26.10;49.60
51383;DHT22;37475;43.358;1.248;2022-08-19T12:13:52;26.30;50.90
51383;DHT22;37475;43.358;1.248;2022-08-19T12:16:29;25.80;51.60
51383;DHT22;37475;43.358;1.248;2022-08-19T12:18:57;26.30;51.40
51383;DHT22;37475;43.358;1.248;2022-08-19T12:21:28;25.50;52.00
51383;DHT22;37475;43.358;1.248;2022-08-19T12:23:57;24.80;53.10
51383;DHT22;37475;43.358;1.248;2022-08-19T12:26:25;25.20;53.00
51383;DHT22;37475;43.358;1.248;2022-08-19T12:28:52;26.00;50.70
51383;DHT22;37475;43.358;1.248;2022-08-19T12:31:18;26.00;49.60
51383;DHT22;37475;43.358;1.248;2022-08-19T12:33:45;26.10;49.50
51383;DHT22;37475;43.358;1.248;2022-08-19T12:36:14;26.90;48.30
51383;DHT22;37475;43.358;1.248;2022-08-19T12:38:41;27.00;47.90
51383;DHT22;37475;43.358;1.248;2022-08-19T12:41:12;26.60;48.40
51383;DHT22;37475;43.358;1.248;2022-08-19T12:43:39;26.60;49.00
51383;DHT22;37475;43.358;1.248;2022-08-19T12:46:07;26.70;48.40
51383;DHT22;37475;43.358;1.248;2022-08-19T12:48:34;26.60;47.60
51383;DHT22;37475;43.358;1.248;2022-08-19T12:51:00;26.70;47.40
51383;DHT22;37475;43.358;1.248;2022-08-19T12:53:31;27.10;47.20
51383;DHT22;37475;43.358;1.248;2022-08-19T12:55:58;27.00;45.70
51383;DHT22;37475;43.358;1.248;2022-08-19T12:58:25;26.60;47.00
51383;DHT22;37475;43.358;1.248;2022-08-19T13:00:52;27.00;47.00
51383;DHT22;37475;43.358;1.248;2022-08-19T13:03:18;27.20;46.90
51383;DHT22;37475;43.358;1.248;2022-08-19T13:05:44;28.20;44.70
51383;DHT22;37475;43.358;1.248;2022-08-19T13:08:10;28.00;43.90
51383;DHT22;37475;43.358;1.248;2022-08-19T13:10:37;28.50;42.30
51383;DHT22;37475;43.358;1.248;2022-08-19T13:13:07;28.30;41.40
51383;DHT22;37475;43.358;1.248;2022-08-19T13:15:37;28.20;40.90
51383;DHT22;37475;43.358;1.248;2022-08-19T13:18:06;27.70;41.40
51383;DHT22;37475;43.358;1.248;2022-08-19T13:20:36;27.10;44.20
51383;DHT22;37475;43.358;1.248;2022-08-19T13:23:02;27.70;44.30
51383;DHT22;37475;43.358;1.248;2022-08-19T13:25:29;27.80;44.70
51383;DHT22;37475;43.358;1.248;2022-08-19T13:27:56;28.50;43.00
51383;DHT22;37475;43.358;1.248;2022-08-19T13:30:22;29.00;41.90
51383;DHT22;37475;43.358;1.248;2022-08-19T13:33:07;28.90;42.00
51383;DHT22;37475;43.358;1.248;2022-08-19T13:35:49;28.40;41.60
51383;DHT22;37475;43.358;1.248;2022-08-19T13:38:21;28.40;41.90
51383;DHT22;37475;43.358;1.248;2022-08-19T13:40:49;29.50;40.20
51383;DHT22;37475;43.358;1.248;2022-08-19T13:43:18;30.00;40.00
51383;DHT22;37475;43.358;1.248;2022-08-19T13:45:45;30.70;38.30
51383;DHT22;37475;43.358;1.248;2022-08-19T13:48:11;31.00;37.10
51383;DHT22;37475;43.358;1.248;2022-08-19T13:50:43;29.60;38.50
51383;DHT22;37475;43.358;1.248;2022-08-19T13:53:11;29.30;40.30
51383;DHT22;37475;43.358;1.248;2022-08-19T13:55:42;29.00;41.80
51383;DHT22;37475;43.358;1.248;2022-08-19T13:58:09;29.70;40.00
51383;DHT22;37475;43.358;1.248;2022-08-19T14:00:39;29.10;39.60
51383;DHT22;37475;43.358;1.248;2022-08-19T14:03:06;27.80;43.20
51383;DHT22;37475;43.358;1.248;2022-08-19T14:05:33;28.00;43.70
51383;DHT22;37475;43.358;1.248;2022-08-19T14:07:59;28.50;41.40
51383;DHT22;37475;43.358;1.248;2022-08-19T14:10:26;28.50;41.80
51383;DHT22;37475;43.358;1.248;2022-08-19T14:12:55;28.30;41.00
51383;DHT22;37475;43.358;1.248;2022-08-19T14:15:23;29.20;41.20
51383;DHT22;37475;43.358;1.248;2022-08-19T14:17:50;29.30;39.90
51383;DHT22;37475;43.358;1.248;2022-08-19T14:20:16;28.80;40.30
51383;DHT22;37475;43.358;1.248;2022-08-19T14:22:43;28.70;42.90
51383;DHT22;37475;43.358;1.248;2022-08-19T14:25:14;29.10;42.20
51383;DHT22;37475;43.358;1.248;2022-08-19T14:27:42;29.50;40.70
51383;DHT22;37475;43.358;1.248;2022-08-19T14:30:11;29.50;41.50
51383;DHT22;37475;43.358;1.248;2022-08-19T14:32:39;30.40;39.60
51383;DHT22;37475;43.358;1.248;2022-08-19T14:35:06;31.10;38.70
51383;DHT22;37475;43.358;1.248;2022-08-19T14:37:35;30.50;38.10
51383;DHT22;37475;43.358;1.248;2022-08-19T14:40:03;29.80;39.70
51383;DHT22;37475;43.358;1.248;2022-08-19T14:42:29;30.60;37.80
51383;DHT22;37475;43.358;1.248;2022-08-19T14:44:59;30.80;37.50
51383;DHT22;37475;43.358;1.248;2022-08-19T14:47:26;30.30;37.90
51383;DHT22;37475;43.358;1.248;2022-08-19T14:49:53;29.60;39.10
51383;DHT22;37475;43.358;1.248;2022-08-19T14:52:19;29.20;40.10
51383;DHT22;37475;43.358;1.248;2022-08-19T14:54:45;28.80;41.70
51383;DHT22;37475;43.358;1.248;2022-08-19T14:57:15;29.10;41.60
51383;DHT22;37475;43.358;1.248;2022-08-19T14:59:42;29.10;41.20
51383;DHT22;37475;43.358;1.248;2022-08-19T15:02:08;28.50;42.10
51383;DHT22;37475;43.358;1.248;2022-08-19T15:04:35;28.40;42.10
51383;DHT22;37475;43.358;1.248;2022-08-19T15:07:00;28.90;41.80
51383;DHT22;37475;43.358;1.248;2022-08-19T15:09:30;29.80;40.70
51383;DHT22;37475;43.358;1.248;2022-08-19T15:11:57;30.50;38.40
51383;DHT22;37475;43.358;1.248;2022-08-19T15:14:25;30.90;37.90
51383;DHT22;37475;43.358;1.248;2022-08-19T15:16:52;31.40;37.20
51383;DHT22;37475;43.358;1.248;2022-08-19T15:19:18;31.20;37.30
51383;DHT22;37475;43.358;1.248;2022-08-19T15:21:44;30.20;38.50
51383;DHT22;37475;43.358;1.248;2022-08-19T15:24:10;29.80;39.40
51383;DHT22;37475;43.358;1.248;2022-08-19T15:26:36;29.00;40.00
51383;DHT22;37475;43.358;1.248;2022-08-19T15:29:03;28.50;42.30
51383;DHT22;37475;43.358;1.248;2022-08-19T15:31:30;29.10;41.20
51383;DHT22;37475;43.358;1.248;2022-08-19T15:34:02;29.50;40.10
51383;DHT22;37475;43.358;1.248;2022-08-19T15:36:29;29.00;40.80
51383;DHT22;37475;43.358;1.248;2022-08-19T15:38:55;28.70;39.80
51383;DHT22;37475;43.358;1.248;2022-08-19T15:41:25;28.50;40.40
51383;DHT22;37475;43.358;1.248;2022-08-19T15:44:00;28.40;41.20
51383;DHT22;37475;43.358;1.248;2022-08-19T15:46:30;28.60;41.50
51383;DHT22;37475;43.358;1.248;2022-08-19T15:48:58;29.00;40.10
51383;DHT22;37475;43.358;1.248;2022-08-19T15:51:29;29.50;39.20
51383;DHT22;37475;43.358;1.248;2022-08-19T15:53:58;29.70;38.40
51383;DHT22;37475;43.358;1.248;2022-08-19T15:56:24;29.00;40.00